Time;durP1;ratioP1;P1;durP2;ratioP2;P2;SDS_P1;SDS_P2;PMS_P1;PMS_P2;Temp;Humidity;BMP_temperature;BMP_pressure;BME280_temperature;BME280_humidity;BME280_pressure;Samples;Min_cycle;Max_cycle;Signal;HPM_P1;HPM_P2
2022/01/11 00:00:46;;;;;;;32.22;17.48;;;;;;;4.44;100.00;103043.31;10124300;28;20051;-70
2022/01/11 00:10:52;;;;;;;29.80;15.93;;;;;;;4.48;100.00;103036.41;10142140;28;20104;-70
2022/01/11 00:15:51;;;;;;;27.10;15.65;;;;;;;4.52;100.00;103051.16;10122179;28;20050;-69
2022/01/11 00:20:47;;;;;;;31.10;17.23;;;;;;;4.29;100.00;103048.19;10145227;28;20125;-69
2022/01/11 00:25:46;;;;;;;27.95;15.93;;;;;;;4.48;100.00;103054.53;10124687;28;20078;-69
2022/01/11 00:30:45;;;;;;;24.80;16.02;;;;;;;4.45;100.00;103049.56;10094065;28;20127;-69
2022/01/11 00:35:44;;;;;;;28.25;15.50;;;;;;;4.48;100.00;103059.94;10098263;28;20089;-70
2022/01/11 00:40:46;;;;;;;27.13;15.38;;;;;;;4.46;100.00;103062.06;10120488;28;20554;-70
2022/01/11 00:45:42;;;;;;;25.58;15.07;;;;;;;4.35;100.00;103064.41;10131992;28;20078;-69
2022/01/11 00:50:39;;;;;;;27.20;15.13;;;;;;;4.28;100.00;103068.22;10117493;28;20054;-68
2022/01/11 00:55:36;;;;;;;26.00;14.55;;;;;;;4.26;100.00;103073.84;10122164;28;20063;-70
2022/01/11 01:00:35;;;;;;;28.85;17.10;;;;;;;4.19;100.00;103067.63;10131125;28;20419;-68
2022/01/11 01:05:32;;;;;;;24.25;14.18;;;;;;;4.23;100.00;103079.69;10132756;28;20042;-68
2022/01/11 01:10:35;;;;;;;26.65;14.90;;;;;;;4.30;100.00;103085.91;10133589;28;20077;-70
2022/01/11 01:15:34;;;;;;;24.87;14.43;;;;;;;4.20;100.00;103094.50;10130255;28;20074;-70
2022/01/11 01:20:33;;;;;;;22.38;13.50;;;;;;;4.24;100.00;103099.47;10116395;28;20527;-70
2022/01/11 01:25:31;;;;;;;23.95;14.70;;;;;;;4.19;100.00;103100.13;10124855;28;20141;-69
2022/01/11 01:30:28;;;;;;;23.80;13.73;;;;;;;4.20;100.00;103101.78;10130558;28;20042;-69
2022/01/11 01:35:29;;;;;;;25.38;14.88;;;;;;;4.12;100.00;103104.75;10110660;28;20479;-69
2022/01/11 01:40:34;;;;;;;28.47;15.27;;;;;;;3.99;100.00;103116.47;10083511;28;20468;-69
2022/01/11 01:45:31;;;;;;;26.33;15.13;;;;;;;3.97;100.00;103124.81;10092645;28;20485;-69
2022/01/11 01:50:30;;;;;;;25.00;15.50;;;;;;;4.09;100.00;103126.84;10107829;28;20054;-70
2022/01/11 01:55:27;;;;;;;30.33;16.77;;;;;;;4.08;100.00;103133.28;10113152;28;20066;-69
2022/01/11 02:00:24;;;;;;;23.73;14.15;;;;;;;4.05;100.00;103125.63;10091898;28;20129;-68
2022/01/11 02:05:21;;;;;;;31.75;17.90;;;;;;;4.06;100.00;103132.69;10106919;28;20459;-68
2022/01/11 02:10:17;;;;;;;26.73;16.05;;;;;;;4.08;100.00;103133.28;10117538;28;20101;-69
2022/01/11 02:15:16;;;;;;;26.23;16.48;;;;;;;4.09;100.00;103143.09;10102098;28;20054;-68
2022/01/11 02:20:14;;;;;;;30.08;16.67;;;;;;;3.97;100.00;103141.06;10090552;28;20102;-69
2022/01/11 02:25:10;;;;;;;29.10;16.65;;;;;;;3.94;100.00;103144.16;10092173;28;20801;-70
2022/01/11 02:30:08;;;;;;;29.00;16.05;;;;;;;3.93;100.00;103134.41;10088767;28;20044;-69
2022/01/11 02:35:05;;;;;;;32.13;16.65;;;;;;;3.87;100.00;103132.53;10124542;28;20051;-69
2022/01/11 02:40:01;;;;;;;37.20;18.00;;;;;;;3.87;100.00;103137.94;10096095;28;20720;-70
2022/01/11 02:44:58;;;;;;;28.98;16.90;;;;;;;3.88;100.00;103145.03;10101974;28;20063;-70
2022/01/11 02:49:54;;;;;;;37.63;17.98;;;;;;;3.87;100.00;103140.66;10087537;28;20047;-69
2022/01/11 02:54:51;;;;;;;30.52;15.95;;;;;;;3.78;100.00;103139.22;10102572;28;20046;-69
2022/01/11 02:59:47;;;;;;;33.25;18.20;;;;;;;3.90;100.00;103152.94;10102458;28;20066;-68
2022/01/11 03:04:44;;;;;;;35.80;19.15;;;;;;;3.93;100.00;103150.63;10100982;28;20047;-69
2022/01/11 03:09:57;;;;;;;32.95;16.88;;;;;;;3.90;100.00;103150.22;10078697;28;20098;-69
2022/01/11 03:14:53;;;;;;;37.92;20.15;;;;;;;3.83;100.00;103155.69;10124911;28;20090;-69
2022/01/11 03:19:49;;;;;;;35.97;18.73;;;;;;;3.58;100.00;103159.06;10147280;28;20081;-69
2022/01/11 03:24:47;;;;;;;34.03;18.20;;;;;;;3.74;100.00;103162.38;10103450;28;20047;-69
2022/01/11 03:29:43;;;;;;;33.63;16.90;;;;;;;3.81;100.00;103174.00;10084104;28;20630;-70
2022/01/11 03:34:41;;;;;;;33.30;17.95;;;;;;;3.83;100.00;103169.22;10090410;28;20138;-69
2022/01/11 03:39:38;;;;;;;35.60;17.88;;;;;;;3.83;100.00;103169.22;10137947;28;20050;-70
2022/01/11 03:44:35;;;;;;;33.95;17.70;;;;;;;3.95;100.00;103170.22;10108045;28;20082;-69
2022/01/11 03:49:31;;;;;;;30.35;17.77;;;;;;;3.98;100.00;103175.19;10113777;28;20086;-70
2022/01/11 03:54:42;;;;;;;32.47;17.40;;;;;;;3.88;100.00;103179.41;10132919;28;20066;-68
2022/01/11 03:59:38;;;;;;;35.58;18.25;;;;;;;3.89;100.00;103181.88;10125073;28;20077;-70
2022/01/11 04:04:35;;;;;;;36.00;19.13;;;;;;;3.90;100.00;103188.97;10123750;28;20071;-69
2022/01/11 04:09:32;;;;;;;33.33;18.42;;;;;;;3.87;100.00;103192.06;10123190;28;20050;-69
2022/01/11 04:14:28;;;;;;;34.38;18.58;;;;;;;3.90;100.00;103188.97;10121609;28;20074;-69
2022/01/11 04:19:25;;;;;;;36.22;19.98;;;;;;;3.93;100.00;103182.28;10123506;28;20564;-69
2022/01/11 04:24:21;;;;;;;35.38;18.88;;;;;;;3.95;100.00;103186.44;10123535;28;20058;-69
2022/01/11 04:29:18;;;;;;;39.30;19.23;;;;;;;3.92;100.00;103192.31;10120108;28;20069;-70
2022/01/11 04:34:14;;;;;;;44.03;20.77;;;;;;;3.86;100.00;103193.13;10129644;28;20047;-70
2022/01/11 04:39:13;;;;;;;38.10;19.75;;;;;;;3.77;100.00;103184.41;10129314;28;20057;-70
2022/01/11 04:44:09;;;;;;;43.53;20.55;;;;;;;3.88;100.00;103180.22;10115698;28;20122;-70
2022/01/11 04:49:06;;;;;;;39.47;19.45;;;;;;;3.95;100.00;103186.44;10105917;28;20510;-70
2022/01/11 04:54:03;;;;;;;48.38;22.55;;;;;;;3.92;100.00;103184.19;10094372;28;20059;-70
2022/01/11 04:58:59;;;;;;;42.10;20.77;;;;;;;3.96;100.00;103192.69;10102393;28;20094;-71
2022/01/11 05:03:56;;;;;;;45.10;20.50;;;;;;;3.97;100.00;103189.78;10115060;28;20081;-71
2022/01/11 05:08:53;;;;;;;47.55;21.55;;;;;;;3.94;100.00;103194.78;10112831;28;20408;-70
2022/01/11 05:13:49;;;;;;;53.47;23.48;;;;;;;3.95;100.00;103191.88;10095627;28;20081;-68
2022/01/11 05:18:46;;;;;;;54.22;21.20;;;;;;;3.97;100.00;103195.19;10094698;28;20463;-68
2022/01/11 05:23:42;;;;;;;50.30;22.70;;;;;;;4.03;100.00;103187.25;10098115;28;20042;-68
2022/01/11 05:28:39;;;;;;;57.40;21.67;;;;;;;3.95;100.00;103191.88;10091897;28;20043;-69
2022/01/11 05:33:36;;;;;;;59.60;22.02;;;;;;;3.93;100.00;103193.13;10103806;28;20051;-71
2022/01/11 05:38:32;;;;;;;56.75;22.35;;;;;;;3.94;100.00;103195.59;10126080;28;20123;-72
2022/01/11 05:43:29;;;;;;;57.17;20.88;;;;;;;4.09;100.00;103197.25;10116586;28;20105;-72
2022/01/11 05:48:26;;;;;;;51.08;19.92;;;;;;;4.04;100.00;103205.16;10103509;28;20131;-70
2022/01/11 05:53:23;;;;;;;52.25;20.88;;;;;;;4.00;100.00;103199.34;10119206;28;20083;-69
2022/01/11 05:58:20;;;;;;;56.47;21.23;;;;;;;3.97;100.00;103205.19;10101791;28;20047;-69
2022/01/11 06:03:16;;;;;;;47.28;20.85;;;;;;;3.95;100.00;103213.53;10099828;28;20062;-70
2022/01/11 06:08:16;;;;;;;47.63;20.83;;;;;;;3.94;100.00;103214.53;10104342;28;20093;-69
2022/01/11 06:13:13;;;;;;;53.42;19.85;;;;;;;3.88;100.00;103218.13;10100584;28;20494;-71
2022/01/11 06:18:10;;;;;;;62.33;21.85;;;;;;;3.89;100.00;103216.25;10098018;28;20083;-71
2022/01/11 06:23:06;;;;;;;55.22;20.90;;;;;;;3.84;100.00;103211.47;10092117;28;20487;-72
2022/01/11 06:28:03;;;;;;;49.80;20.10;;;;;;;3.59;100.00;103224.81;10090509;28;20078;-71
2022/01/11 06:33:00;;;;;;;56.88;20.13;;;;;;;3.64;100.00;103229.59;10096095;28;20101;-71
2022/01/11 06:37:56;;;;;;;53.67;20.23;;;;;;;3.58;100.00;103228.56;10086680;28;20051;-72
2022/01/11 06:42:53;;;;;;;46.05;19.40;;;;;;;3.63;100.00;103233.34;10086334;28;20039;-71
2022/01/11 06:47:51;;;;;;;50.67;20.70;;;;;;;3.57;100.00;103243.97;10080658;28;20102;-71
2022/01/11 06:52:48;;;;;;;45.08;18.80;;;;;;;3.56;100.00;103244.16;10085942;28;20665;-69
2022/01/11 06:57:45;;;;;;;55.88;20.08;;;;;;;3.23;100.00;103246.88;10095464;28;20085;-72
2022/01/11 07:02:42;;;;;;;42.95;19.40;;;;;;;3.40;100.00;103256.22;10078176;28;20039;-72
2022/01/11 07:07:39;;;;;;;47.25;20.77;;;;;;;3.45;100.00;103264.56;10085698;28;20055;-72
2022/01/11 07:12:35;;;;;;;46.88;18.65;;;;;;;3.57;100.00;103270.16;10120326;28;20105;-71
2022/01/11 07:17:32;;;;;;;50.08;21.35;;;;;;;3.58;100.00;103278.09;10087011;28;20475;-72
2022/01/11 07:22:29;;;;;;;49.90;18.30;;;;;;;3.46;100.00;103279.75;10095218;28;20092;-72
2022/01/11 07:27:25;;;;;;;45.78;18.98;;;;;;;3.62;100.00;103289.34;10094616;28;20050;-72
2022/01/11 07:32:22;;;;;;;51.88;20.40;;;;;;;3.75;100.00;103288.50;10083868;28;20093;-72
2022/01/11 07:37:18;;;;;;;43.13;19.67;;;;;;;3.84;100.00;103286.41;10087836;28;20510;-71
2022/01/11 07:42:15;;;;;;;45.33;19.10;;;;;;;3.83;100.00;103285.59;10086078;28;20074;-71
2022/01/11 07:47:12;;;;;;;44.92;19.13;;;;;;;3.71;100.00;103290.81;10083651;28;20050;-69
2022/01/11 07:52:08;;;;;;;41.50;18.75;;;;;;;3.61;100.00;103287.66;10126013;23;20506;-68
2022/01/11 07:57:04;;;;;;;52.45;22.38;;;;;;;3.50;100.00;103297.22;10155925;28;20077;-70
2022/01/11 08:02:03;;;;;;;44.15;18.17;;;;;;;3.56;100.00;103306.41;10157406;28;20801;-71
2022/01/11 08:07:01;;;;;;;44.45;18.92;;;;;;;3.38;100.00;103307.00;10156512;28;20070;-71
2022/01/11 08:11:58;;;;;;;41.28;17.23;;;;;;;3.21;100.00;103314.66;10159274;28;20085;-71
2022/01/11 08:16:55;;;;;;;43.40;18.63;;;;;;;3.27;100.00;103316.56;10164581;28;20045;-71
2022/01/11 08:21:56;;;;;;;44.33;17.75;;;;;;;3.37;100.00;103308.03;10179413;28;20046;-70
2022/01/11 08:26:54;;;;;;;39.85;17.45;;;;;;;3.19;100.00;103310.50;10159936;28;20038;-71
2022/01/11 08:31:50;;;;;;;42.45;17.85;;;;;;;3.27;100.00;103313.00;10165789;28;20077;-71
2022/01/11 08:36:49;;;;;;;42.70;17.95;;;;;;;3.29;100.00;103308.22;10178238;28;20454;-71
2022/01/11 08:41:46;;;;;;;45.10;18.58;;;;;;;3.34;100.00;103314.69;10127426;28;20100;-71
2022/01/11 08:46:43;;;;;;;42.67;18.27;;;;;;;3.39;100.00;103314.09;10160896;28;20058;-72
2022/01/11 08:51:40;;;;;;;42.63;17.77;;;;;;;3.59;100.00;103304.09;10167780;28;20158;-69
2022/01/11 08:56:37;;;;;;;49.63;17.20;;;;;;;3.77;100.00;103310.78;10159527;28;20133;-71
2022/01/11 09:01:34;;;;;;;35.10;16.77;;;;;;;3.84;100.00;103313.47;10155271;28;20046;-70
2022/01/11 09:06:31;;;;;;;39.80;15.68;;;;;;;3.83;100.00;103328.03;10157513;28;20399;-72
2022/01/11 09:11:45;;;;;;;34.78;15.23;;;;;;;3.89;100.00;103328.03;10158215;28;20569;-72
2022/01/11 09:16:42;;;;;;;33.50;16.67;;;;;;;3.91;100.00;103331.38;10167844;28;20426;-72
2022/01/11 09:21:40;;;;;;;33.67;15.32;;;;;;;4.05;100.00;103331.38;10170028;28;20052;-72
2022/01/11 09:26:38;;;;;;;30.75;14.25;;;;;;;3.98;100.00;103326.78;10169085;28;20043;-71
2022/01/11 09:31:35;;;;;;;35.22;16.67;;;;;;;4.09;100.00;103332.63;10191881;28;20100;-72
2022/01/11 09:36:31;;;;;;;31.60;13.75;;;;;;;4.11;100.00;103330.53;10177113;28;20046;-72
2022/01/11 09:41:28;;;;;;;33.17;14.80;;;;;;;4.27;100.00;103334.66;10124204;28;20046;-72
2022/01/11 09:46:24;;;;;;;38.55;16.08;;;;;;;4.20;100.00;103334.66;10168911;28;20521;-72
2022/01/11 09:51:21;;;;;;;31.33;15.23;;;;;;;4.31;100.00;103336.72;10191073;28;20049;-72
2022/01/11 09:56:18;;;;;;;29.85;13.82;;;;;;;4.29;100.00;103322.56;10161095;28;20073;-71
2022/01/11 10:01:14;;;;;;;32.35;14.70;;;;;;;4.28;100.00;103320.91;10158112;28;20046;-71
2022/01/11 10:06:16;;;;;;;34.97;12.98;;;;;;;4.26;100.00;103322.16;10168602;28;20072;-71
2022/01/11 10:11:12;;;;;;;33.55;13.00;;;;;;;4.22;100.00;103332.59;10177700;28;20050;-71
2022/01/11 10:16:22;;;;;;;31.00;12.75;;;;;;;4.48;100.00;103325.44;10163884;28;20050;-70
2022/01/11 10:21:42;;;;;;;27.05;12.02;;;;;;;4.70;100.00;103321.41;10195622;28;20525;-71
2022/01/11 10:26:40;;;;;;;23.58;11.27;;;;;;;5.00;100.00;103318.16;10169189;28;20053;-71
2022/01/11 10:31:37;;;;;;;28.90;11.55;;;;;;;4.92;100.00;103312.97;10172900;28;20082;-71
2022/01/11 10:36:44;;;;;;;23.20;11.43;;;;;;;4.78;100.00;103310.34;10163969;28;20037;-71
2022/01/11 10:41:42;;;;;;;28.23;11.63;;;;;;;4.64;100.00;103314.13;10159753;28;20051;-71
2022/01/11 10:46:43;;;;;;;32.33;12.25;;;;;;;4.62;100.00;103310.81;10163072;28;20502;-71
2022/01/11 10:52:15;;;;;;;24.23;11.10;;;;;;;4.57;100.00;103322.31;10171843;28;20058;-71
2022/01/11 10:57:27;;;;;;;27.85;12.02;;;;;;;4.45;100.00;103318.56;10161429;28;20137;-71
2022/01/11 11:02:26;;;;;;;26.55;11.30;;;;;;;4.60;100.00;103323.75;10175888;28;20108;-71
2022/01/11 11:07:25;;;;;;;26.67;11.95;;;;;;;4.66;100.00;103328.31;10158709;28;20508;-72
2022/01/11 11:12:24;;;;;;;28.83;12.77;;;;;;;4.66;100.00;103322.88;10155894;28;20064;-70
2022/01/11 11:17:32;;;;;;;28.55;12.82;;;;;;;4.76;100.00;103312.44;10157323;28;20074;-70
2022/01/11 11:22:29;;;;;;;22.00;10.88;;;;;;;4.85;100.00;103303.00;10150010;28;20053;-70
2022/01/11 11:27:28;;;;;;;29.67;11.07;;;;;;;4.64;100.00;103304.16;10153722;28;20041;-70
2022/01/11 11:32:25;;;;;;;23.38;10.48;;;;;;;4.72;100.00;103288.69;10151505;28;20084;-70
2022/01/11 11:37:27;;;;;;;21.40;11.43;;;;;;;4.91;100.00;103297.75;10150541;28;20042;-70
2022/01/11 11:42:26;;;;;;;22.45;10.40;;;;;;;5.14;100.00;103300.75;10157245;28;20518;-70
2022/01/11 11:47:34;;;;;;;22.08;10.43;;;;;;;4.77;100.00;103297.81;10151951;28;20073;-70
2022/01/11 11:52:38;;;;;;;19.88;10.95;;;;;;;4.53;100.00;103301.28;10153082;28;20035;-69
2022/01/11 11:57:40;;;;;;;24.35;9.50;;;;;;;4.51;100.00;103297.94;10143006;28;20069;-70
2022/01/11 12:02:42;;;;;;;18.73;8.98;;;;;;;4.64;100.00;103281.59;10168998;28;20054;-70
2022/01/11 12:07:43;;;;;;;18.23;9.63;;;;;;;4.57;100.00;103283.50;10156972;28;20046;-69
2022/01/11 12:12:42;;;;;;;21.75;8.23;;;;;;;4.77;100.00;103292.41;10159265;28;20080;-69
2022/01/11 12:17:38;;;;;;;25.70;9.30;;;;;;;4.59;100.00;103290.38;10159125;28;20208;-69
2022/01/11 12:22:40;;;;;;;22.83;9.20;;;;;;;4.42;100.00;103298.16;10158141;28;20065;-69
2022/01/11 12:28:00;;;;;;;18.03;9.10;;;;;;;4.93;100.00;103295.66;10160290;28;20101;-69
2022/01/11 12:33:29;;;;;;;24.38;9.90;;;;;;;5.01;100.00;103292.69;10159933;28;20137;-70
2022/01/11 12:38:33;;;;;;;17.58;7.55;;;;;;;4.61;100.00;103279.34;10156653;28;20465;-69
2022/01/11 12:43:39;;;;;;;18.45;8.90;;;;;;;4.70;100.00;103280.75;10168111;28;20092;-70
2022/01/11 12:48:58;;;;;;;17.33;8.43;;;;;;;4.74;100.00;103279.28;10185406;28;20046;-69
2022/01/11 12:54:26;;;;;;;21.95;9.25;;;;;;;4.71;100.00;103277.03;10151543;28;20046;-72
2022/01/11 12:59:27;;;;;;;20.38;8.95;;;;;;;4.66;100.00;103268.69;10158658;28;20158;-69
2022/01/11 13:04:49;;;;;;;21.88;9.73;;;;;;;4.85;100.00;103262.34;10155086;28;20045;-69
2022/01/11 13:09:47;;;;;;;22.50;9.02;;;;;;;4.69;100.00;103253.84;10153820;28;20038;-69
2022/01/11 13:15:13;;;;;;;19.48;8.43;;;;;;;4.81;100.00;103263.81;10114765;28;20065;-69
2022/01/11 13:20:10;;;;;;;17.42;7.72;;;;;;;4.94;100.00;103259.38;10153197;28;20082;-68
2022/01/11 13:25:07;;;;;;;23.05;9.45;;;;;;;5.13;100.00;103263.84;10153955;28;20054;-68
2022/01/11 13:30:04;;;;;;;18.00;8.35;;;;;;;5.13;100.00;103263.84;10154988;28;20050;-68
2022/01/11 13:35:11;;;;;;;17.67;7.80;;;;;;;5.22;100.00;103257.13;10155776;28;20565;-69
2022/01/11 13:40:11;;;;;;;17.60;8.02;;;;;;;5.17;100.00;103253.38;10110583;28;20055;-68
2022/01/11 13:45:08;;;;;;;17.40;8.05;;;;;;;5.24;100.00;103249.59;10155377;28;20093;-74
2022/01/11 13:50:05;;;;;;;19.98;8.10;;;;;;;5.35;100.00;103260.78;10155242;28;20058;-75
2022/01/11 13:55:02;;;;;;;16.90;8.82;;;;;;;5.09;100.00;103265.31;10163695;28;20084;-73
2022/01/11 14:00:11;;;;;;;17.20;9.07;;;;;;;4.99;100.00;103263.09;10157659;28;20116;-73
2022/01/11 14:05:16;;;;;;;15.65;8.85;;;;;;;4.67;100.00;103259.53;10114371;28;20046;-72
2022/01/11 14:10:14;;;;;;;17.52;8.43;;;;;;;4.42;100.00;103256.69;10123708;28;20051;-74
2022/01/11 14:15:12;;;;;;;16.60;8.55;;;;;;;4.53;100.00;103263.34;10154864;28;20414;-74
2022/01/11 14:20:11;;;;;;;20.63;9.05;;;;;;;4.36;100.00;103266.53;10151173;28;20051;-73
2022/01/11 14:25:10;;;;;;;16.35;7.80;;;;;;;4.30;100.00;103275.50;10156292;28;20042;-75
2022/01/11 14:30:13;;;;;;;15.38;8.50;;;;;;;4.18;100.00;103279.91;10141353;28;20093;-71
2022/01/11 14:35:09;;;;;;;;;;;;;;;4.25;100.00;103278.00;10155097;28;20081;-71
2022/01/11 14:40:29;;;;;;;21.05;9.43;;;;;;;4.18;100.00;103277.19;10156308;28;19921;-73
2022/01/11 14:45:28;;;;;;;20.42;9.00;;;;;;;4.15;100.00;103283.03;10155984;28;20384;-72
2022/01/11 14:50:29;;;;;;;20.35;9.80;;;;;;;4.10;100.00;103280.13;10154175;28;20736;-71
2022/01/11 14:55:53;;;;;;;21.35;9.25;;;;;;;4.13;100.00;103285.09;10154032;28;20104;-73
2022/01/11 15:00:55;;;;;;;18.02;8.98;;;;;;;3.92;100.00;103284.31;10182186;28;20109;-72
2022/01/11 15:06:02;;;;;;;20.93;9.70;;;;;;;3.96;100.00;103292.84;10176612;28;20049;-72
2022/01/11 15:11:18;;;;;;;19.52;9.85;;;;;;;3.92;100.00;103289.75;10179777;28;20477;-72
2022/01/11 15:16:15;;;;;;;18.40;9.75;;;;;;;3.91;100.00;103292.66;10156598;28;20077;-74
2022/01/11 15:21:12;;;;;;;18.42;10.00;;;;;;;3.82;100.00;103294.72;10151502;28;20054;-72
2022/01/11 15:26:09;;;;;;;22.15;10.25;;;;;;;3.82;100.00;103283.91;10155622;28;20050;-75
2022/01/11 15:31:06;;;;;;;23.73;11.07;;;;;;;3.70;100.00;103296.41;10171939;28;20096;-72
2022/01/11 15:36:02;;;;;;;26.27;10.40;;;;;;;3.57;100.00;103284.56;10168241;28;20089;-71
2022/01/11 15:41:00;;;;;;;18.27;9.52;;;;;;;3.49;100.00;103282.03;10138786;28;20078;-71
2022/01/11 15:45:58;;;;;;;25.80;10.98;;;;;;;3.44;100.00;103281.84;10162311;28;20065;-73
2022/01/11 15:50:55;;;;;;;25.15;10.90;;;;;;;3.34;100.00;103295.78;10176509;28;20113;-74
2022/01/11 15:55:52;;;;;;;30.73;12.05;;;;;;;3.54;100.00;103295.78;10154695;28;20081;-74
2022/01/11 16:00:49;;;;;;;30.00;12.98;;;;;;;3.54;100.00;103287.66;10192136;28;20042;-72
2022/01/11 16:05:46;;;;;;;26.30;12.15;;;;;;;3.42;100.00;103292.03;10155809;28;20073;-73
2022/01/11 16:10:43;;;;;;;27.52;12.23;;;;;;;3.38;100.00;103293.47;10154328;28;20100;-69
2022/01/11 16:15:40;;;;;;;29.02;12.65;;;;;;;3.43;100.00;103296.38;10149461;28;20054;-68
2022/01/11 16:20:37;;;;;;;26.33;11.93;;;;;;;3.47;100.00;103286.00;10155831;28;20053;-71
2022/01/11 16:25:33;;;;;;;26.83;12.02;;;;;;;3.53;100.00;103286.00;10152126;28;20073;-71
2022/01/11 16:30:33;;;;;;;27.55;12.05;;;;;;;3.39;100.00;103284.34;10147360;28;20070;-71
2022/01/11 16:35:33;;;;;;;29.35;12.38;;;;;;;3.38;100.00;103296.19;10142699;28;20062;-68
2022/01/11 16:45:31;;;;;;;33.58;14.73;;;;;;;3.44;100.00;103297.25;10149175;28;20046;-69
2022/01/11 16:50:28;;;;;;;28.58;12.15;;;;;;;3.39;100.00;103289.75;10148239;28;20134;-69
2022/01/11 16:55:25;;;;;;;31.38;13.90;;;;;;;3.50;100.00;103297.22;10154631;28;20047;-68
2022/01/11 17:00:23;;;;;;;28.80;14.02;;;;;;;3.49;100.00;103300.97;10146513;28;21011;-69
2022/01/11 17:05:19;;;;;;;33.20;14.65;;;;;;;3.38;100.00;103301.59;10149951;28;20082;-69
2022/01/11 17:10:17;;;;;;;32.97;13.63;;;;;;;3.37;100.00;103297.22;10172333;28;20053;-69
2022/01/11 17:15:14;;;;;;;38.70;15.50;;;;;;;3.32;100.00;103305.13;10171971;28;20630;-69
2022/01/11 17:20:12;;;;;;;36.00;15.23;;;;;;;2.98;100.00;103308.78;10149304;28;20521;-70
2022/01/11 17:25:10;;;;;;;39.40;16.48;;;;;;;3.25;100.00;103304.25;10173215;28;20053;-69
2022/01/11 17:30:08;;;;;;;41.75;18.38;;;;;;;3.10;100.00;103318.78;10145518;28;20510;-70
2022/01/11 17:35:05;;;;;;;40.08;16.25;;;;;;;3.17;100.00;103318.81;10178796;28;20533;-69
2022/01/11 17:40:02;;;;;;;36.78;16.63;;;;;;;3.11;100.00;103304.25;10117095;28;20082;-70
2022/01/11 17:44:58;;;;;;;45.08;16.73;;;;;;;3.17;100.00;103319.63;10177193;28;20050;-70
2022/01/11 17:49:56;;;;;;;40.80;18.60;;;;;;;3.17;100.00;103318.81;10160283;28;20050;-70
2022/01/11 17:54:52;;;;;;;43.95;18.35;;;;;;;3.12;100.00;103311.31;10163227;28;20043;-69
2022/01/11 17:59:49;;;;;;;42.80;18.33;;;;;;;2.98;100.00;103320.41;10194048;28;20492;-69
2022/01/11 18:04:45;;;;;;;41.90;19.08;;;;;;;3.10;100.00;103307.97;10178381;28;20070;-70
2022/01/11 18:09:42;;;;;;;43.42;18.00;;;;;;;3.09;100.00;103295.50;10182822;28;20450;-70
2022/01/11 18:14:39;;;;;;;39.63;17.08;;;;;;;3.17;100.00;103308.81;10169948;28;20074;-70
2022/01/11 18:19:36;;;;;;;54.97;20.48;;;;;;;3.03;100.00;103296.31;10153947;28;20046;-70
2022/01/11 18:24:33;;;;;;;41.03;19.70;;;;;;;2.93;100.00;103299.41;10158322;28;20474;-69
2022/01/11 18:29:29;;;;;;;45.13;19.05;;;;;;;2.93;100.00;103312.09;10182639;28;20391;-70
2022/01/11 18:34:26;;;;;;;39.72;18.70;;;;;;;2.91;100.00;103311.47;10164677;28;20080;-70
2022/01/11 18:39:23;;;;;;;48.97;19.92;;;;;;;2.97;100.00;103318.78;10190140;28;20096;-70
2022/01/11 18:44:19;;;;;;;44.80;20.52;;;;;;;3.09;100.00;103317.13;10174751;28;20126;-70
2022/01/11 18:49:15;;;;;;;49.85;20.05;;;;;;;3.08;100.00;103320.03;10171273;28;20537;-69
2022/01/11 18:54:12;;;;;;;47.47;20.17;;;;;;;3.08;100.00;103326.25;10166491;28;20121;-69
2022/01/11 18:59:08;;;;;;;44.10;19.70;;;;;;;3.11;100.00;103322.31;10175018;28;20058;-69
2022/01/11 19:04:06;;;;;;;47.53;19.58;;;;;;;3.14;100.00;103311.94;10164652;28;20136;-69
2022/01/11 19:09:06;;;;;;;44.70;20.00;;;;;;;3.10;100.00;103318.78;10140171;28;20457;-69
2022/01/11 19:14:02;;;;;;;47.08;19.65;;;;;;;3.09;100.00;103322.53;10142609;28;20046;-70
2022/01/11 19:18:59;;;;;;;48.92;20.40;;;;;;;2.98;100.00;103320.41;10165532;28;20096;-70
2022/01/11 19:23:55;;;;;;;44.95;20.88;;;;;;;2.97;100.00;103321.47;10175697;28;20696;-70
2022/01/11 19:28:52;;;;;;;45.25;20.23;;;;;;;3.00;100.00;103318.34;10184429;28;20136;-69
2022/01/11 19:33:49;;;;;;;49.67;21.00;;;;;;;3.09;100.00;103327.94;10169816;28;20042;-69
2022/01/11 19:38:46;;;;;;;56.45;20.77;;;;;;;2.91;100.00;103325.81;10156922;28;20077;-70
2022/01/11 19:43:42;;;;;;;50.65;20.98;;;;;;;2.95;100.00;103320.84;10155182;28;20751;-70
2022/01/11 19:48:39;;;;;;;53.17;22.23;;;;;;;2.95;100.00;103320.84;10156620;28;20426;-69
2022/01/11 19:53:35;;;;;;;46.83;20.88;;;;;;;2.99;100.00;103313.16;10136813;28;20498;-69
2022/01/11 19:58:32;;;;;;;44.60;21.33;;;;;;;3.06;100.00;103316.69;10172433;28;20052;-69
2022/01/11 20:03:28;;;;;;;51.85;21.35;;;;;;;3.04;100.00;103319.63;10162234;28;20047;-69
2022/01/11 20:08:25;;;;;;;45.63;20.02;;;;;;;3.02;100.00;103316.28;10163454;28;20042;-69
2022/01/11 20:13:22;;;;;;;40.63;19.67;;;;;;;3.03;100.00;103312.53;10183814;28;20499;-69
2022/01/11 20:18:19;;;;;;;49.17;23.25;;;;;;;3.01;100.00;103309.19;10151891;28;20065;-70
2022/01/11 20:28:31;;;;;;;51.22;20.45;;;;;;;3.10;100.00;103310.69;10158451;28;20558;-73
2022/01/11 20:33:27;;;;;;;49.20;19.02;;;;;;;2.93;100.00;103312.94;10128665;28;20089;-73
2022/01/11 20:38:24;;;;;;;52.53;21.60;;;;;;;2.98;100.00;103322.31;10187069;28;20104;-73
2022/01/11 20:43:20;;;;;;;46.40;20.50;;;;;;;3.01;100.00;103325.41;10138378;28;20117;-73
2022/01/11 20:48:17;;;;;;;47.88;19.88;;;;;;;3.14;100.00;103325.47;10154109;28;20054;-72
2022/01/11 20:53:20;;;;;;;46.83;19.83;;;;;;;3.11;100.00;103330.44;10180434;28;20074;-73
2022/01/11 20:58:18;;;;;;;44.15;19.15;;;;;;;3.14;100.00;103325.47;10155755;28;20078;-73
2022/01/11 21:03:16;;;;;;;40.60;18.98;;;;;;;3.09;100.00;103322.53;10193769;28;20046;-72
2022/01/11 21:08:13;;;;;;;43.33;19.95;;;;;;;3.02;100.00;103321.69;10178277;28;20085;-73
2022/01/11 21:13:09;;;;;;;41.80;18.85;;;;;;;3.09;100.00;103321.72;10196429;28;20104;-73
2022/01/11 21:23:26;;;;;;;40.20;17.48;;;;;;;3.16;100.00;103312.56;10186199;28;20053;-73
2022/01/11 21:28:23;;;;;;;37.92;17.33;;;;;;;3.12;100.00;103305.91;10155876;28;20098;-73
2022/01/11 21:33:20;;;;;;;39.75;17.83;;;;;;;3.15;100.00;103305.50;10171796;28;20069;-72
2022/01/11 21:38:17;;;;;;;38.40;17.50;;;;;;;3.28;100.00;103304.69;10159789;28;20428;-72
2022/01/11 21:43:16;;;;;;;39.00;17.13;;;;;;;3.33;100.00;103301.38;10154631;28;20045;-69
2022/01/11 21:48:13;;;;;;;41.17;17.92;;;;;;;3.20;100.00;103310.28;10152642;28;20050;-70
2022/01/11 21:53:09;;;;;;;38.60;17.27;;;;;;;3.25;100.00;103309.66;10156929;28;20073;-70
2022/01/11 21:58:07;;;;;;;44.15;17.38;;;;;;;3.31;100.00;103308.84;10156640;28;20080;-70
2022/01/11 22:03:05;;;;;;;36.75;17.33;;;;;;;3.28;100.00;103310.09;10162691;28;20105;-70
2022/01/11 22:08:04;;;;;;;37.45;17.38;;;;;;;3.43;100.00;103312.59;10159469;28;20050;-70
2022/01/11 22:13:12;;;;;;;41.00;17.33;;;;;;;3.42;100.00;103316.38;10154800;28;20105;-70
2022/01/11 22:18:09;;;;;;;37.83;16.20;;;;;;;3.52;100.00;103311.38;10152140;28;20038;-71
2022/01/11 22:23:05;;;;;;;39.78;15.85;;;;;;;3.54;100.00;103313.88;10153902;28;20050;-70
2022/01/11 22:28:02;;;;;;;37.90;17.95;;;;;;;3.69;100.00;103310.97;10152073;28;20058;-70
2022/01/11 22:32:58;;;;;;;34.45;15.68;;;;;;;3.70;100.00;103302.66;10153854;28;20444;-71
2022/01/11 22:37:56;;;;;;;32.75;15.00;;;;;;;3.75;100.00;103305.56;10155810;28;20054;-71
2022/01/11 22:42:53;;;;;;;31.05;15.05;;;;;;;3.80;100.00;103299.50;10150394;28;20105;-70